CheckWX is a tool to help pilots better visualize weather data.  It is not intended as a substitute for an official pre-flight weather briefing.

21:50:23 UTC

EGDY METAR
RNAS Yeovilton Airport
Yeovil, United Kingdom
Current

30 mins ago

EGDY 292120Z 20009KT 9999 SCT040 08/06 Q1011 NOSIG RMK BLU BLU
Observed
Jan-29 @ 21:20 UTC
Wind
  • 200° at 9 KTS
Visibility
10,000+ meters
Flight Rules
VFR
Cloud Levels
  • Scattered at 4,000' AGL
Temperature
C / 46°F
Dewpoint
C / 43°F
Humidity
87%
Altimeter
29.85" Hg
Pressure
1010.92 hPa
Previous

60 mins ago

EGDY 292050Z 21008KT 9999 BKN040 08/06 Q1011 NOSIG RMK BLU BLU
Observed
Jan-29 @ 20:50 UTC
Wind
  • 210° at 8 KTS
Visibility
10,000+ meters
Flight Rules
VFR
Cloud Levels
  • Broken at 4,000' AGL
Temperature
C / 46°F
Dewpoint
C / 43°F
Humidity
87%
Altimeter
29.85" Hg
Pressure
1010.92 hPa
Previous

1 hour ago

EGDY 292021Z 20008KT 9999 FEW040 SCT120 08/05 Q1011 NOSIG RMK BLU BLU
Observed
Jan-29 @ 20:21 UTC
Wind
  • 200° at 8 KTS
Visibility
10,000+ meters
Flight Rules
VFR
Cloud Levels
  • Few at 4,000' AGL
  • Scattered at 12,000' AGL
Temperature
C / 46°F
Dewpoint
C / 41°F
Humidity
82%
Altimeter
29.85" Hg
Pressure
1010.92 hPa